Time;durP1;ratioP1;P1;durP2;ratioP2;P2;SDS_P1;SDS_P2;PMS_P1;PMS_P2;Temp;Humidity;BMP_temperature;BMP_pressure;BME280_temperature;BME280_humidity;BME280_pressure;Samples;Min_cycle;Max_cycle;Signal;HPM_P1;HPM_P2
2021/06/26 00:00:59;;;;;;;12.48;9.73;;;16.10;99.30;;;;;;5034904;28;20052;-66
2021/06/26 00:03:27;;;;;;;11.13;9.73;;;16.10;99.30;;;;;;5034629;28;20029;-67
2021/06/26 00:05:54;;;;;;;11.50;9.05;;;16.10;99.30;;;;;;5031696;28;20140;-66
2021/06/26 00:08:19;;;;;;;10.30;8.75;;;16.10;99.30;;;;;;5035250;28;20076;-66
2021/06/26 00:10:46;;;;;;;10.55;8.82;;;16.00;99.30;;;;;;5036711;28;20026;-66
2021/06/26 00:13:13;;;;;;;10.35;8.80;;;16.00;99.30;;;;;;5034423;28;20543;-66
2021/06/26 00:15:40;;;;;;;10.05;8.90;;;16.00;99.40;;;;;;5034382;28;20021;-66
2021/06/26 00:18:06;;;;;;;12.15;9.90;;;16.00;99.40;;;;;;5034513;28;20024;-66
2021/06/26 00:20:32;;;;;;;12.02;9.73;;;16.00;99.40;;;;;;5032833;28;20049;-66
2021/06/26 00:22:57;;;;;;;12.18;9.82;;;15.90;99.40;;;;;;5035524;28;20025;-66
2021/06/26 00:25:23;;;;;;;11.45;9.50;;;15.90;99.50;;;;;;5034609;28;20029;-66
2021/06/26 00:27:50;;;;;;;11.93;9.52;;;15.90;99.50;;;;;;5036456;28;20037;-66
2021/06/26 00:30:16;;;;;;;13.00;10.90;;;15.90;99.50;;;;;;5034026;28;20103;-66
2021/06/26 00:32:42;;;;;;;12.27;10.40;;;15.90;99.50;;;;;;5033282;28;20014;-66
2021/06/26 00:35:09;;;;;;;10.68;9.57;;;15.90;99.60;;;;;;5033561;28;20021;-66
2021/06/26 00:37:35;;;;;;;12.23;9.70;;;15.90;99.60;;;;;;5032784;28;20104;-66
2021/06/26 00:40:00;;;;;;;12.02;9.98;;;15.90;99.60;;;;;;5032680;28;20504;-66
2021/06/26 00:42:31;;;;;;;11.38;9.82;;;15.80;99.60;;;;;;5034663;28;20207;-66
2021/06/26 00:44:56;;;;;;;13.60;10.02;;;15.80;99.60;;;;;;5036597;28;20021;-66
2021/06/26 00:47:22;;;;;;;11.90;10.18;;;15.80;99.60;;;;;;5032539;28;20520;-66
2021/06/26 00:49:47;;;;;;;11.85;10.05;;;15.80;99.70;;;;;;5034548;28;20036;-66
2021/06/26 00:52:13;;;;;;;11.60;9.75;;;15.80;99.70;;;;;;5033152;28;20470;-66
2021/06/26 00:54:39;;;;;;;10.98;9.45;;;15.80;99.70;;;;;;5033074;28;20473;-66
2021/06/26 00:57:05;;;;;;;10.93;8.98;;;15.70;99.70;;;;;;5030859;28;20704;-66
2021/06/26 00:59:31;;;;;;;9.98;8.75;;;15.70;99.70;;;;;;5034585;28;20026;-66
2021/06/26 01:01:56;;;;;;;9.60;8.30;;;15.70;99.70;;;;;;5035828;28;20028;-66
2021/06/26 01:04:22;;;;;;;9.65;8.13;;;15.70;99.70;;;;;;5032505;28;20033;-66
2021/06/26 01:06:47;;;;;;;10.07;8.27;;;15.60;99.70;;;;;;5031996;28;20389;-66
2021/06/26 01:09:13;;;;;;;10.20;8.43;;;15.60;99.80;;;;;;5036849;28;20082;-67
2021/06/26 01:11:38;;;;;;;15.25;12.00;;;15.60;99.80;;;;;;5034034;28;20017;-66
2021/06/26 01:14:04;;;;;;;17.88;14.77;;;15.50;99.80;;;;;;5035034;28;20414;-66
2021/06/26 01:16:29;;;;;;;17.73;13.98;;;15.50;99.90;;;;;;5034140;28;20026;-66
2021/06/26 01:18:55;;;;;;;20.08;15.38;;;15.40;99.90;;;;;;5032795;28;20501;-66
2021/06/26 01:21:21;;;;;;;20.58;15.60;;;15.40;99.90;;;;;;5032931;28;20038;-66
2021/06/26 01:23:50;;;;;;;22.85;17.48;;;15.30;99.90;;;;;;5031967;28;20029;-66
2021/06/26 01:26:16;;;;;;;23.97;18.93;;;15.20;99.90;;;;;;5036874;28;20405;-66
2021/06/26 01:28:42;;;;;;;20.45;16.63;;;15.10;99.90;;;;;;5033761;28;20112;-66
2021/06/26 01:31:08;;;;;;;21.55;16.55;;;15.10;99.90;;;;;;5033472;28;20057;-66
2021/06/26 01:33:34;;;;;;;21.73;16.92;;;15.10;99.90;;;;;;5033116;28;20018;-66
2021/06/26 01:36:01;;;;;;;19.67;15.35;;;15.10;99.90;;;;;;5035201;28;20029;-66
2021/06/26 01:38:26;;;;;;;21.52;16.80;;;15.10;99.90;;;;;;5036397;28;20022;-67
2021/06/26 01:40:52;;;;;;;22.35;17.42;;;15.00;99.90;;;;;;5035424;28;20025;-67
2021/06/26 01:43:17;;;;;;;22.33;18.02;;;15.00;99.90;;;;;;5040288;28;20013;-66
2021/06/26 01:45:43;;;;;;;19.98;15.23;;;15.10;99.90;;;;;;5037274;28;20089;-67
2021/06/26 01:48:09;;;;;;;18.90;14.75;;;15.10;99.90;;;;;;5038497;28;20029;-67
2021/06/26 01:50:34;;;;;;;16.50;12.50;;;15.00;99.90;;;;;;5036409;28;20022;-66
2021/06/26 01:53:00;;;;;;;17.25;12.23;;;15.10;99.90;;;;;;5034929;28;20029;-67
2021/06/26 01:55:27;;;;;;;13.63;10.93;;;15.10;99.90;;;;;;5034825;28;20018;-67
2021/06/26 01:57:53;;;;;;;14.50;11.45;;;15.10;99.90;;;;;;5035233;28;20108;-66
2021/06/26 02:00:22;;;;;;;16.70;13.63;;;15.20;99.90;;;;;;5039767;28;20052;-66
2021/06/26 02:02:49;;;;;;;14.52;11.85;;;15.20;99.90;;;;;;5035643;28;20025;-67
2021/06/26 02:05:17;;;;;;;14.90;11.50;;;15.20;99.90;;;;;;5034235;28;20105;-66
2021/06/26 02:07:44;;;;;;;12.70;9.82;;;15.20;99.90;;;;;;5033808;28;20032;-67
2021/06/26 02:10:10;;;;;;;11.73;9.20;;;15.20;99.90;;;;;;5037088;28;20366;-67
2021/06/26 02:12:36;;;;;;;8.77;7.80;;;15.20;99.90;;;;;;5038839;28;20025;-67
2021/06/26 02:15:01;;;;;;;10.07;8.15;;;15.20;99.90;;;;;;5036146;28;20432;-67
2021/06/26 02:17:27;;;;;;;12.35;8.75;;;15.10;99.90;;;;;;5037760;28;20568;-66
2021/06/26 02:19:52;;;;;;;10.50;8.20;;;15.10;99.90;;;;;;5035292;28;20513;-67
2021/06/26 02:22:18;;;;;;;10.77;8.95;;;15.10;99.90;;;;;;5035139;28;20389;-67
2021/06/26 02:24:44;;;;;;;11.48;9.05;;;15.10;99.90;;;;;;5033523;28;20505;-67
2021/06/26 02:27:09;;;;;;;13.80;10.35;;;15.10;99.90;;;;;;5036813;28;20026;-66
2021/06/26 02:29:35;;;;;;;12.35;10.00;;;15.10;99.90;;;;;;5037794;28;20021;-66
2021/06/26 02:32:02;;;;;;;12.80;10.35;;;15.10;99.90;;;;;;5035430;28;20465;-67
2021/06/26 02:34:27;;;;;;;14.10;10.55;;;15.10;99.90;;;;;;5036455;28;20018;-66
2021/06/26 02:36:53;;;;;;;12.20;9.82;;;15.10;99.90;;;;;;5035119;28;20469;-66
2021/06/26 02:39:18;;;;;;;11.00;8.63;;;15.00;99.90;;;;;;5034823;28;20021;-66
2021/06/26 02:41:44;;;;;;;11.32;9.02;;;15.00;99.90;;;;;;5034423;28;20022;-66
2021/06/26 02:44:10;;;;;;;12.05;8.60;;;15.00;99.90;;;;;;5036303;28;20068;-66
2021/06/26 02:46:35;;;;;;;10.68;8.68;;;15.00;99.90;;;;;;5037585;28;20017;-66
2021/06/26 02:49:01;;;;;;;10.85;8.98;;;15.00;99.90;;;;;;5035817;28;20515;-66
2021/06/26 02:51:27;;;;;;;12.68;9.05;;;15.00;99.90;;;;;;5036316;28;20477;-66
2021/06/26 02:53:53;;;;;;;12.82;10.02;;;15.00;99.90;;;;;;5034904;28;20093;-66
2021/06/26 02:56:18;;;;;;;11.10;9.30;;;15.00;99.90;;;;;;5033247;28;20109;-66
2021/06/26 02:58:44;;;;;;;10.75;9.07;;;15.00;99.90;;;;;;5034093;28;20478;-66
2021/06/26 03:01:09;;;;;;;11.73;9.48;;;15.00;99.90;;;;;;5036109;28;20029;-66
2021/06/26 03:03:35;;;;;;;11.13;9.18;;;15.00;99.90;;;;;;5019028;28;20021;-66
2021/06/26 03:06:00;;;;;;;10.73;9.60;;;15.00;99.90;;;;;;5034931;28;20087;-66
2021/06/26 03:08:26;;;;;;;12.20;9.70;;;15.00;99.90;;;;;;5032417;28;20044;-66
2021/06/26 03:10:51;;;;;;;10.15;9.00;;;15.00;99.90;;;;;;5038392;28;20028;-66
2021/06/26 03:13:17;;;;;;;12.15;9.20;;;15.00;99.90;;;;;;5035571;28;20032;-66
2021/06/26 03:15:44;;;;;;;11.43;9.43;;;15.10;99.90;;;;;;5036040;28;20093;-66
2021/06/26 03:18:10;;;;;;;10.30;8.88;;;15.10;99.90;;;;;;5035712;28;20100;-66
2021/06/26 03:20:35;;;;;;;13.02;9.38;;;15.10;99.90;;;;;;5034269;28;20163;-66
2021/06/26 03:23:01;;;;;;;11.50;9.43;;;15.10;99.90;;;;;;5034483;28;20029;-66
2021/06/26 03:25:26;;;;;;;10.65;8.80;;;15.10;99.90;;;;;;5032168;28;20029;-66
2021/06/26 03:27:52;;;;;;;11.35;8.77;;;15.10;99.90;;;;;;5037938;28;20401;-66
2021/06/26 03:30:18;;;;;;;11.60;9.15;;;15.10;99.90;;;;;;5035152;28;20506;-66
2021/06/26 03:32:43;;;;;;;14.57;9.80;;;15.10;99.90;;;;;;5035974;28;20088;-66
2021/06/26 03:35:10;;;;;;;11.55;9.43;;;15.10;99.90;;;;;;5033404;28;20025;-66
2021/06/26 03:37:35;;;;;;;10.70;8.95;;;15.10;99.90;;;;;;5034085;28;20021;-66
2021/06/26 03:40:01;;;;;;;10.85;9.30;;;15.10;99.90;;;;;;5034131;28;20083;-67
2021/06/26 03:42:26;;;;;;;11.52;9.65;;;15.10;99.90;;;;;;5032974;28;20485;-66
2021/06/26 03:44:52;;;;;;;10.15;8.48;;;15.10;99.90;;;;;;5036721;28;20029;-67
2021/06/26 03:47:18;;;;;;;11.25;9.15;;;15.20;99.90;;;;;;5034897;28;20548;-66
2021/06/26 03:49:43;;;;;;;10.73;8.80;;;15.20;99.90;;;;;;5035716;28;20061;-66
2021/06/26 03:52:09;;;;;;;11.48;8.82;;;15.20;99.90;;;;;;5034328;28;20022;-67
2021/06/26 03:54:35;;;;;;;11.80;8.90;;;15.20;99.90;;;;;;5033798;28;20033;-67
2021/06/26 03:57:01;;;;;;;10.73;8.13;;;15.20;99.90;;;;;;5033646;28;20100;-66
2021/06/26 03:59:26;;;;;;;10.88;8.52;;;15.30;99.90;;;;;;5032252;28;20087;-67
2021/06/26 04:01:52;;;;;;;11.15;8.43;;;15.30;99.90;;;;;;5037378;28;20028;-67
2021/06/26 04:04:19;;;;;;;11.40;9.18;;;15.30;99.90;;;;;;5033395;28;20022;-67
2021/06/26 04:06:45;;;;;;;11.63;9.73;;;15.30;99.90;;;;;;5033036;28;20056;-67
2021/06/26 04:09:11;;;;;;;11.90;8.95;;;15.40;99.90;;;;;;5035199;28;20111;-67
2021/06/26 04:11:36;;;;;;;13.10;9.82;;;15.40;99.90;;;;;;5034821;28;20026;-67
2021/06/26 04:14:02;;;;;;;13.20;10.93;;;15.40;99.90;;;;;;5035874;28;20482;-67
2021/06/26 04:16:27;;;;;;;14.23;11.50;;;15.40;99.90;;;;;;5035277;28;20100;-67
2021/06/26 04:18:53;;;;;;;15.98;11.65;;;15.40;99.90;;;;;;5033575;28;20185;-67
2021/06/26 04:21:18;;;;;;;12.23;10.85;;;15.40;99.90;;;;;;5034083;28;20025;-67
2021/06/26 04:23:44;;;;;;;14.05;10.77;;;15.40;99.90;;;;;;5032897;28;20096;-67
2021/06/26 04:26:09;;;;;;;13.52;11.10;;;15.40;99.90;;;;;;5033591;28;20017;-66
2021/06/26 04:28:35;;;;;;;12.80;10.70;;;15.50;99.90;;;;;;5034656;28;20021;-67
2021/06/26 04:31:00;;;;;;;13.90;11.05;;;15.50;99.90;;;;;;5035363;28;20543;-67
2021/06/26 04:33:26;;;;;;;13.90;10.40;;;15.50;99.90;;;;;;5034576;28;20022;-67
2021/06/26 04:35:52;;;;;;;13.98;10.75;;;15.60;99.90;;;;;;5033479;28;20022;-67
2021/06/26 04:38:22;;;;;;;12.68;9.80;;;15.60;99.90;;;;;;5033946;28;20025;-67
2021/06/26 04:40:48;;;;;;;12.32;8.73;;;15.60;99.90;;;;;;5031186;28;20025;-67
2021/06/26 04:43:13;;;;;;;11.05;9.18;;;15.60;99.90;;;;;;5017507;28;20024;-67
2021/06/26 04:45:44;;;;;;;10.63;9.15;;;15.70;99.90;;;;;;5034507;28;20078;-67
2021/06/26 04:48:10;;;;;;;14.25;9.80;;;15.70;99.90;;;;;;5035918;28;20022;-67
2021/06/26 04:50:35;;;;;;;12.15;9.43;;;15.70;99.90;;;;;;5033617;28;20056;-67
2021/06/26 04:53:01;;;;;;;13.73;10.05;;;15.80;99.90;;;;;;5033608;28;20041;-67
2021/06/26 04:55:26;;;;;;;11.55;9.75;;;15.80;99.90;;;;;;5033492;28;20128;-67
2021/06/26 04:57:52;;;;;;;12.70;9.65;;;15.80;99.90;;;;;;5032493;28;20525;-67
2021/06/26 05:00:19;;;;;;;12.45;9.77;;;15.90;99.90;;;;;;5033634;28;20488;-67
2021/06/26 05:02:45;;;;;;;11.85;9.68;;;15.90;99.90;;;;;;5034082;28;20017;-67
2021/06/26 05:05:11;;;;;;;14.23;10.20;;;16.00;99.90;;;;;;5032806;28;20025;-67
2021/06/26 05:07:37;;;;;;;11.88;9.63;;;16.00;99.90;;;;;;5031344;28;20026;-67
2021/06/26 05:10:03;;;;;;;13.20;10.13;;;16.00;99.90;;;;;;5032796;28;20033;-67
2021/06/26 05:12:29;;;;;;;12.68;9.55;;;16.00;99.90;;;;;;5040299;28;20362;-67
2021/06/26 05:14:54;;;;;;;12.10;9.88;;;16.00;99.90;;;;;;5036585;28;20492;-67
2021/06/26 05:17:20;;;;;;;11.82;9.50;;;16.00;99.90;;;;;;5038818;28;20028;-66
2021/06/26 05:19:45;;;;;;;13.13;10.20;;;16.10;99.90;;;;;;5060186;28;20053;-67
2021/06/26 05:22:12;;;;;;;12.68;10.02;;;16.10;99.90;;;;;;5066464;28;20025;-66
2021/06/26 05:24:38;;;;;;;12.48;9.93;;;16.10;99.90;;;;;;5055183;28;20033;-66
2021/06/26 05:27:05;;;;;;;12.50;9.90;;;16.10;99.90;;;;;;5056295;28;20025;-66
2021/06/26 05:29:31;;;;;;;13.68;10.23;;;16.20;99.90;;;;;;5054814;28;20476;-66
2021/06/26 05:31:57;;;;;;;12.48;10.05;;;16.20;99.90;;;;;;5056240;28;20029;-66
2021/06/26 05:34:22;;;;;;;15.52;10.68;;;16.30;99.90;;;;;;5056066;28;20021;-66
2021/06/26 05:36:48;;;;;;;11.25;9.82;;;16.40;99.90;;;;;;5056036;28;20016;-66
2021/06/26 05:39:13;;;;;;;12.10;10.38;;;16.40;99.90;;;;;;5054692;28;20040;-66
2021/06/26 05:41:39;;;;;;;11.75;9.65;;;16.50;99.90;;;;;;5056011;28;20388;-67
2021/06/26 05:44:05;;;;;;;12.43;10.00;;;16.50;99.90;;;;;;5055984;28;20037;-67
2021/06/26 05:46:30;;;;;;;13.25;10.32;;;16.60;99.90;;;;;;5055848;28;20389;-67
2021/06/26 05:48:56;;;;;;;14.63;11.07;;;16.60;99.90;;;;;;5055703;28;20544;-67
2021/06/26 05:51:21;;;;;;;17.27;12.93;;;16.70;99.90;;;;;;5054557;28;20032;-67
2021/06/26 05:53:47;;;;;;;15.07;13.10;;;16.70;99.90;;;;;;5055629;28;20120;-67
2021/06/26 05:56:13;;;;;;;17.73;13.95;;;16.80;99.90;;;;;;5055863;28;20036;-67
2021/06/26 05:58:38;;;;;;;18.33;13.98;;;16.90;99.90;;;;;;5054440;28;20067;-67
2021/06/26 06:01:06;;;;;;;18.00;15.18;;;16.90;99.90;;;;;;5041184;28;20017;-67
2021/06/26 06:03:32;;;;;;;17.33;13.90;;;17.00;99.90;;;;;;5035098;28;20018;-67
2021/06/26 06:05:58;;;;;;;17.20;13.48;;;17.10;99.90;;;;;;5034567;28;20021;-67
2021/06/26 06:08:24;;;;;;;16.45;13.45;;;17.10;99.90;;;;;;5034668;28;20030;-67
2021/06/26 06:10:49;;;;;;;18.27;15.63;;;17.20;99.90;;;;;;5033465;28;20025;-67
2021/06/26 06:13:20;;;;;;;19.58;16.60;;;17.20;99.90;;;;;;5034611;28;20076;-67
2021/06/26 06:15:47;;;;;;;21.55;17.75;;;17.30;99.90;;;;;;5034543;28;20466;-67
2021/06/26 06:18:14;;;;;;;19.67;16.27;;;17.30;99.90;;;;;;5052984;28;20025;-67
2021/06/26 06:20:40;;;;;;;16.98;14.25;;;17.40;99.90;;;;;;5069909;28;20542;-67
2021/06/26 06:23:07;;;;;;;18.60;14.63;;;17.40;99.90;;;;;;5073775;28;20048;-67
2021/06/26 06:25:33;;;;;;;19.75;14.93;;;17.50;99.90;;;;;;5075248;28;20392;-67
2021/06/26 06:28:01;;;;;;;18.42;14.52;;;17.60;99.90;;;;;;5073863;28;20036;-66
2021/06/26 06:30:27;;;;;;;17.75;14.52;;;17.60;99.90;;;;;;5075167;28;20043;-67
2021/06/26 06:32:53;;;;;;;18.13;14.75;;;17.70;99.90;;;;;;5075052;28;20464;-67
2021/06/26 06:35:18;;;;;;;18.98;14.93;;;17.70;99.90;;;;;;5074881;28;20082;-67
2021/06/26 06:37:44;;;;;;;16.90;13.50;;;17.70;99.90;;;;;;5074959;28;20078;-67
2021/06/26 06:40:13;;;;;;;17.23;13.40;;;17.70;99.90;;;;;;5063809;28;20075;-67
2021/06/26 06:42:40;;;;;;;16.65;13.73;;;17.80;99.90;;;;;;5061109;28;20016;-67
2021/06/26 06:45:06;;;;;;;16.35;12.27;;;17.90;99.90;;;;;;5058991;28;20116;-67
2021/06/26 06:47:32;;;;;;;16.02;12.88;;;17.90;99.90;;;;;;5054754;28;20021;-66
2021/06/26 06:49:57;;;;;;;14.30;12.70;;;18.00;99.90;;;;;;5053174;28;20059;-67
2021/06/26 06:52:23;;;;;;;20.60;16.30;;;18.10;99.90;;;;;;5054716;28;20070;-67
2021/06/26 06:54:48;;;;;;;18.05;14.82;;;18.10;99.90;;;;;;5057155;28;20037;-66
2021/06/26 06:57:14;;;;;;;17.48;14.52;;;18.10;99.90;;;;;;5059848;28;20047;-67
2021/06/26 06:59:39;;;;;;;15.48;12.82;;;18.10;99.90;;;;;;5054162;28;20024;-67
2021/06/26 07:02:05;;;;;;;16.40;13.35;;;18.20;99.90;;;;;;5052839;28;20044;-67
2021/06/26 07:04:31;;;;;;;18.45;15.95;;;18.30;99.90;;;;;;5053919;28;20031;-66
2021/06/26 07:06:57;;;;;;;18.40;14.88;;;18.40;99.90;;;;;;5053951;28;20025;-67
2021/06/26 07:09:23;;;;;;;16.50;13.25;;;18.40;99.90;;;;;;5053958;28;20048;-67
2021/06/26 07:11:49;;;;;;;16.73;13.05;;;18.50;99.90;;;;;;5053940;28;20025;-67
2021/06/26 07:14:14;;;;;;;18.08;14.07;;;18.50;99.90;;;;;;5053942;28;20091;-67
2021/06/26 07:16:40;;;;;;;15.65;12.10;;;18.60;99.70;;;;;;5053680;28;20022;-67
2021/06/26 07:19:05;;;;;;;14.25;12.02;;;18.70;99.70;;;;;;5053388;28;20083;-66
2021/06/26 07:21:32;;;;;;;14.70;12.60;;;18.70;99.50;;;;;;5034527;28;20037;-67
2021/06/26 07:23:58;;;;;;;13.10;10.25;;;18.80;99.40;;;;;;5053573;28;20475;-67
2021/06/26 07:26:23;;;;;;;11.32;9.52;;;18.90;99.20;;;;;;5052207;28;20095;-67
2021/06/26 07:28:49;;;;;;;10.77;9.27;;;19.00;99.20;;;;;;5052232;28;20507;-66
2021/06/26 07:31:14;;;;;;;14.27;12.50;;;19.10;99.00;;;;;;5052138;28;20100;-66
2021/06/26 07:33:40;;;;;;;14.48;11.75;;;19.10;98.30;;;;;;5051962;28;20021;-67
2021/06/26 07:36:06;;;;;;;13.63;11.02;;;19.20;98.20;;;;;;5052916;28;20045;-66
2021/06/26 07:38:31;;;;;;;13.65;12.02;;;19.30;98.00;;;;;;5053188;28;20013;-66
2021/06/26 07:40:57;;;;;;;13.30;11.45;;;19.40;97.60;;;;;;5053624;28;20037;-66
2021/06/26 07:43:22;;;;;;;15.57;12.65;;;19.50;97.30;;;;;;5053438;28;20021;-66
2021/06/26 07:45:48;;;;;;;14.43;11.52;;;19.50;96.90;;;;;;5053550;28;20037;-66
2021/06/26 07:48:13;;;;;;;15.00;13.40;;;19.60;96.70;;;;;;5053430;28;20095;-67
2021/06/26 07:50:39;;;;;;;12.40;10.90;;;19.70;96.20;;;;;;5052003;28;20159;-66
2021/06/26 07:53:05;;;;;;;16.38;12.00;;;19.80;96.40;;;;;;5053351;28;20111;-67
2021/06/26 07:55:31;;;;;;;15.77;12.32;;;19.90;95.90;;;;;;5053351;28;20033;-66
2021/06/26 07:57:57;;;;;;;13.30;11.90;;;19.90;95.60;;;;;;5052139;28;20025;-66
2021/06/26 08:00:22;;;;;;;15.48;12.85;;;20.00;95.50;;;;;;5051824;28;20024;-67
2021/06/26 08:02:48;;;;;;;12.80;11.35;;;20.10;95.20;;;;;;5053065;28;20037;-67
2021/06/26 08:05:13;;;;;;;19.17;16.23;;;20.20;95.10;;;;;;5053244;28;20029;-66
2021/06/26 08:07:39;;;;;;;17.15;13.93;;;20.30;94.50;;;;;;5053046;28;20029;-66
2021/06/26 08:10:05;;;;;;;13.35;11.65;;;20.30;94.00;;;;;;5053117;28;20504;-67
2021/06/26 08:12:32;;;;;;;13.75;11.75;;;20.40;94.20;;;;;;5052904;28;20037;-67
2021/06/26 08:14:58;;;;;;;14.70;12.38;;;20.40;94.10;;;;;;5051387;28;20087;-67
2021/06/26 08:17:23;;;;;;;13.30;11.90;;;20.50;94.00;;;;;;5052405;28;20485;-67
2021/06/26 08:19:49;;;;;;;12.73;10.73;;;20.60;94.10;;;;;;5052372;28;20435;-66
2021/06/26 08:22:14;;;;;;;14.00;11.65;;;20.70;94.10;;;;;;5052597;28;20078;-66
2021/06/26 08:24:40;;;;;;;18.08;15.68;;;20.80;94.00;;;;;;5052335;28;20024;-66
2021/06/26 08:27:06;;;;;;;17.70;15.75;;;20.80;93.30;;;;;;5052528;28;20021;-67
2021/06/26 08:29:31;;;;;;;15.43;13.77;;;20.80;92.50;;;;;;5052343;28;20021;-66
2021/06/26 08:31:57;;;;;;;14.32;12.80;;;20.80;92.50;;;;;;5052606;28;20409;-67
2021/06/26 08:34:23;;;;;;;14.55;11.35;;;20.90;92.40;;;;;;5051549;28;20377;-67
2021/06/26 08:36:50;;;;;;;12.40;10.57;;;21.00;92.40;;;;;;5052568;28;20040;-67
2021/06/26 08:39:19;;;;;;;19.77;16.20;;;21.10;92.40;;;;;;5052760;28;20070;-67
2021/06/26 08:41:47;;;;;;;16.17;14.50;;;21.20;91.50;;;;;;5051453;28;20021;-67
2021/06/26 08:44:12;;;;;;;18.85;15.85;;;21.30;91.40;;;;;;5052514;28;20732;-67
2021/06/26 08:46:44;;;;;;;18.73;15.23;;;21.40;91.10;;;;;;5050847;28;20039;-67
2021/06/26 08:49:10;;;;;;;19.60;16.10;;;21.40;90.90;;;;;;5052631;28;20474;-67
2021/06/26 08:51:37;;;;;;;17.92;14.75;;;21.50;90.80;;;;;;5052692;28;20025;-67
2021/06/26 08:54:03;;;;;;;15.82;13.27;;;21.50;90.60;;;;;;5052592;28;20029;-67
2021/06/26 08:56:28;;;;;;;14.32;12.82;;;21.60;90.50;;;;;;5052512;28;20033;-67
2021/06/26 08:58:54;;;;;;;14.73;13.18;;;21.70;90.50;;;;;;5052555;28;20021;-67
2021/06/26 09:01:19;;;;;;;16.92;13.95;;;21.80;90.10;;;;;;5052534;28;20025;-67
2021/06/26 09:03:45;;;;;;;15.77;13.10;;;21.80;89.60;;;;;;5052675;28;20421;-67
2021/06/26 09:06:10;;;;;;;14.20;12.63;;;21.90;89.60;;;;;;5052502;28;20080;-67
2021/06/26 09:08:47;;;;;;;14.35;12.85;;;22.00;89.30;;;;;;5052261;28;20048;-67
2021/06/26 09:11:17;;;;;;;12.25;10.43;;;22.00;88.70;;;;;;5052582;28;20075;-67
2021/06/26 09:13:43;;;;;;;12.88;11.52;;;22.20;88.90;;;;;;5052479;28;20021;-67
2021/06/26 09:16:11;;;;;;;19.17;16.33;;;22.20;88.40;;;;;;5052216;28;20031;-67
2021/06/26 09:18:45;;;;;;;18.33;14.75;;;22.20;87.90;;;;;;5052224;28;20021;-67
2021/06/26 09:21:33;;;;;;;13.82;12.27;;;22.30;87.40;;;;;;5052586;28;20017;-67
2021/06/26 09:24:11;;;;;;;17.17;14.13;;;22.30;88.80;;;;;;5051067;28;20056;-67
2021/06/26 09:26:58;;;;;;;16.98;14.00;;;22.50;86.80;;;;;;5049236;28;20019;-67
2021/06/26 09:29:24;;;;;;;19.42;14.63;;;22.50;86.20;;;;;;5048885;28;20052;-66
2021/06/26 09:32:01;;;;;;;15.38;13.77;;;22.60;85.70;;;;;;5051873;28;20025;-67
2021/06/26 09:34:42;;;;;;;14.45;12.95;;;22.70;82.30;;;;;;5050783;28;20021;-66
2021/06/26 09:37:12;;;;;;;14.95;13.30;;;22.70;82.50;;;;;;5050844;28;20014;-67
2021/06/26 09:39:40;;;;;;;16.65;13.52;;;22.70;81.00;;;;;;5049199;28;20397;-67
2021/06/26 09:42:17;;;;;;;15.75;12.95;;;22.70;80.00;;;;;;5051875;28;20491;-67
2021/06/26 09:44:57;;;;;;;15.32;13.27;;;22.80;80.40;;;;;;5048791;28;20531;-67
2021/06/26 09:47:42;;;;;;;12.85;11.55;;;23.00;80.00;;;;;;5050015;28;20067;-67
2021/06/26 09:50:16;;;;;;;13.23;11.82;;;23.10;79.80;;;;;;5052013;28;20538;-67
2021/06/26 09:52:50;;;;;;;15.80;14.00;;;23.10;79.20;;;;;;5050722;28;20025;-67
2021/06/26 09:55:37;;;;;;;12.65;10.93;;;23.10;79.80;;;;;;5051922;28;20499;-67
2021/06/26 09:58:08;;;;;;;13.88;12.38;;;23.30;80.00;;;;;;5053654;28;20017;-67
2021/06/26 10:00:34;;;;;;;13.95;12.13;;;23.40;79.90;;;;;;5055476;28;20473;-67
2021/06/26 10:03:00;;;;;;;16.27;14.38;;;23.50;78.70;;;;;;5055354;28;20104;-67
2021/06/26 10:05:26;;;;;;;14.60;13.02;;;23.50;76.30;;;;;;5052372;28;20021;-67
2021/06/26 10:07:53;;;;;;;12.15;10.52;;;23.50;74.10;;;;;;5054922;28;20497;-67
2021/06/26 10:10:23;;;;;;;13.20;10.25;;;23.60;75.10;;;;;;5058547;28;20083;-67
2021/06/26 10:12:51;;;;;;;14.13;11.48;;;23.70;76.60;;;;;;5072416;28;20052;-67
2021/06/26 10:15:18;;;;;;;12.68;11.02;;;23.80;75.70;;;;;;5075412;28;20082;-67
2021/06/26 10:17:44;;;;;;;13.07;11.60;;;23.80;75.50;;;;;;5060760;28;20095;-67
2021/06/26 10:20:13;;;;;;;14.73;13.20;;;23.80;73.40;;;;;;5054936;28;20120;-67
2021/06/26 10:22:59;;;;;;;13.43;12.02;;;23.70;72.00;;;;;;5055327;28;20052;-67
2021/06/26 10:25:36;;;;;;;13.27;11.38;;;23.70;72.20;;;;;;5053756;28;20095;-67
2021/06/26 10:28:16;;;;;;;14.02;12.07;;;23.80;73.10;;;;;;5055174;28;20036;-69
2021/06/26 10:30:43;;;;;;;15.55;13.13;;;23.90;71.60;;;;;;5056398;28;20044;-67
2021/06/26 10:33:10;;;;;;;12.55;11.23;;;23.90;72.20;;;;;;5054341;28;20495;-67
2021/06/26 10:35:51;;;;;;;17.90;15.85;;;24.00;72.40;;;;;;5053990;28;20021;-67
2021/06/26 10:38:17;;;;;;;16.15;13.77;;;24.00;73.20;;;;;;5054256;28;20063;-67
2021/06/26 10:40:47;;;;;;;14.90;13.32;;;24.00;72.40;;;;;;5053633;28;20025;-67
2021/06/26 10:43:32;;;;;;;14.10;12.60;;;24.10;71.90;;;;;;5053947;28;20431;-67
2021/06/26 10:46:06;;;;;;;15.25;13.65;;;24.30;72.30;;;;;;5053652;28;20036;-67
2021/06/26 10:48:33;;;;;;;14.07;11.27;;;24.40;71.90;;;;;;5063759;28;20028;-68
2021/06/26 10:50:58;;;;;;;12.65;10.23;;;24.50;71.80;;;;;;5075074;28;20032;-68
2021/06/26 10:53:29;;;;;;;14.57;13.07;;;24.70;71.40;;;;;;5073466;28;20550;-67
2021/06/26 10:55:58;;;;;;;14.68;11.73;;;24.90;70.60;;;;;;5074389;28;20384;-67
2021/06/26 10:58:30;;;;;;;;;;;24.90;68.90;;;;;;5075073;28;20108;-67
2021/06/26 11:00:56;;;;;;;14.45;12.98;;;24.90;69.60;;;;;;5074413;28;19912;-67
2021/06/26 11:03:28;;;;;;;15.35;12.15;;;24.90;71.00;;;;;;5074542;28;20028;-67
2021/06/26 11:05:53;;;;;;;11.32;10.20;;;25.00;69.60;;;;;;5072951;28;20498;-67
2021/06/26 11:08:21;;;;;;;13.57;12.20;;;25.20;69.10;;;;;;5072199;28;20025;-68
2021/06/26 11:10:59;;;;;;;13.00;11.45;;;25.30;68.20;;;;;;5071803;28;20029;-67
2021/06/26 11:13:29;;;;;;;14.23;11.52;;;25.30;67.30;;;;;;5050907;28;20017;-68
2021/06/26 11:16:02;;;;;;;11.55;9.73;;;25.30;66.90;;;;;;5054475;28;20025;-68
2021/06/26 11:18:28;;;;;;;9.32;8.10;;;25.50;66.50;;;;;;5034323;28;20067;-67
2021/06/26 11:20:56;;;;;;;7.93;7.13;;;25.90;66.90;;;;;;5033715;28;20080;-68
2021/06/26 11:23:21;;;;;;;12.52;9.48;;;26.30;66.40;;;;;;5034413;28;20033;-67
2021/06/26 11:25:47;;;;;;;14.80;12.50;;;26.70;65.60;;;;;;5034215;28;20385;-67
2021/06/26 11:28:14;;;;;;;12.15;10.25;;;26.90;62.40;;;;;;5034036;28;20362;-67
2021/06/26 11:30:46;;;;;;;10.25;9.25;;;26.90;62.40;;;;;;5033758;28;20044;-69
2021/06/26 11:33:12;;;;;;;10.43;9.43;;;27.00;61.90;;;;;;5034124;28;20021;-68
2021/06/26 11:35:40;;;;;;;8.07;7.28;;;27.10;62.30;;;;;;5033909;28;20087;-68
2021/06/26 11:38:12;;;;;;;7.47;6.68;;;27.30;63.00;;;;;;5033855;28;20033;-68
2021/06/26 11:40:38;;;;;;;11.32;10.10;;;27.50;63.00;;;;;;5032517;28;20036;-68
2021/06/26 11:43:06;;;;;;;13.50;12.10;;;27.40;61.20;;;;;;5033489;28;20029;-68
2021/06/26 11:45:38;;;;;;;10.45;7.97;;;27.00;60.70;;;;;;5033696;28;20022;-67
2021/06/26 11:48:20;;;;;;;7.93;7.13;;;27.00;62.10;;;;;;5033632;28;20045;-67
2021/06/26 11:51:09;;;;;;;7.93;7.13;;;27.20;62.70;;;;;;5033281;28;20056;-67
2021/06/26 11:53:40;;;;;;;11.85;8.93;;;27.40;63.00;;;;;;5032534;28;20040;-67
2021/06/26 11:56:06;;;;;;;8.20;7.40;;;27.50;62.60;;;;;;5033282;28;20025;-67
2021/06/26 11:58:49;;;;;;;7.85;7.15;;;27.60;62.70;;;;;;5033360;28;20034;-67
2021/06/26 12:01:15;;;;;;;7.72;6.45;;;28.10;62.80;;;;;;5032977;28;20021;-67
2021/06/26 12:03:42;;;;;;;8.93;7.63;;;28.40;62.50;;;;;;5033200;28;20029;-67
2021/06/26 12:06:13;;;;;;;8.90;7.35;;;28.70;62.10;;;;;;5033477;28;20053;-67
2021/06/26 12:08:48;;;;;;;10.73;8.77;;;28.80;61.80;;;;;;5033184;28;20504;-67
2021/06/26 12:11:17;;;;;;;9.50;8.60;;;28.90;61.60;;;;;;5033330;28;20385;-67
2021/06/26 12:13:44;;;;;;;;;;;28.80;61.40;;;;;;5033441;28;20014;-66
2021/06/26 12:16:18;;;;;;;8.32;7.43;;;28.80;61.90;;;;;;5034173;28;19905;-67
2021/06/26 12:18:48;;;;;;;9.55;8.43;;;28.80;60.80;;;;;;5051970;28;20023;-67
2021/06/26 12:21:13;;;;;;;7.90;6.82;;;28.80;59.50;;;;;;5050916;28;20021;-67
2021/06/26 12:23:56;;;;;;;7.75;7.05;;;28.80;59.00;;;;;;5052967;28;20100;-67
2021/06/26 12:26:26;;;;;;;7.05;6.35;;;28.50;57.20;;;;;;5052990;28;20047;-67
2021/06/26 12:28:53;;;;;;;11.82;10.63;;;28.40;57.50;;;;;;5051277;28;20385;-67
2021/06/26 12:31:20;;;;;;;8.60;7.43;;;28.10;57.60;;;;;;5052959;28;20021;-67
2021/06/26 12:33:57;;;;;;;10.57;9.57;;;28.00;58.80;;;;;;5052627;28;20025;-67